sensor_id;sensor_type;location;lat;lon;timestamp;pressure;altitude;pressure_sealevel;temperature;humidity
57056;BME280;42945;51.718;5.324;2022-09-02T00:04:33;101476.06;;;13.19;70.98
57056;BME280;42945;51.718;5.324;2022-09-02T00:14:27;101443.94;;;13.23;70.65
57056;BME280;42945;51.718;5.324;2022-09-02T00:20:16;101476.03;;;13.05;71.83
57056;BME280;42945;51.718;5.324;2022-09-02T00:26:05;101158.19;;;13.20;71.67
57056;BME280;42945;51.718;5.324;2022-09-02T00:31:55;101432.31;;;13.09;71.32
57056;BME280;42945;51.718;5.324;2022-09-02T00:37:43;101460.53;;;13.12;72.50
57056;BME280;42945;51.718;5.324;2022-09-02T00:43:54;101415.19;;;13.13;72.11
57056;BME280;42945;51.718;5.324;2022-09-02T00:49:44;101393.16;;;12.65;71.55
57056;BME280;42945;51.718;5.324;2022-09-02T00:55:42;101514.88;;;13.55;72.22
57056;BME280;42945;51.718;5.324;2022-09-02T01:01:31;101433.03;;;12.81;72.76
57056;BME280;42945;51.718;5.324;2022-09-02T01:07:20;101688.53;;;14.24;72.19
57056;BME280;42945;51.718;5.324;2022-09-02T01:17:10;101301.72;;;12.36;72.66
57056;BME280;42945;51.718;5.324;2022-09-02T01:22:57;101408.41;;;13.08;72.49
57056;BME280;42945;51.718;5.324;2022-09-02T01:28:46;101422.38;;;12.97;72.04
57056;BME280;42945;51.718;5.324;2022-09-02T01:34:33;101432.81;;;13.00;73.90
57056;BME280;42945;51.718;5.324;2022-09-02T01:40:23;101262.25;;;12.28;72.38
57056;BME280;42945;51.718;5.324;2022-09-02T01:46:10;101335.69;;;12.47;72.04
57056;BME280;42945;51.718;5.324;2022-09-02T01:51:57;101245.44;;;12.28;71.33
57056;BME280;42945;51.718;5.324;2022-09-02T01:57:46;101264.78;;;12.46;71.34
57056;BME280;42945;51.718;5.324;2022-09-02T02:03:36;101292.16;;;12.48;70.68
57056;BME280;42945;51.718;5.324;2022-09-02T02:09:23;101392.34;;;13.09;70.42
57056;BME280;42945;51.718;5.324;2022-09-02T02:19:05;101556.84;;;13.66;71.88
57056;BME280;42945;51.718;5.324;2022-09-02T02:24:53;101082.63;;;12.94;71.15
57056;BME280;42945;51.718;5.324;2022-09-02T02:30:41;101367.16;;;12.85;71.10
57056;BME280;42945;51.718;5.324;2022-09-02T02:36:30;101193.91;;;11.52;73.07
57056;BME280;42945;51.718;5.324;2022-09-02T02:42:18;101398.31;;;12.68;74.37
57056;BME280;42945;51.718;5.324;2022-09-02T02:48:07;101378.72;;;12.69;74.99
57056;BME280;42945;51.718;5.324;2022-09-02T02:53:55;101546.88;;;13.08;75.15
57056;BME280;42945;51.718;5.324;2022-09-02T02:59:43;101396.84;;;12.31;75.95
57056;BME280;42945;51.718;5.324;2022-09-02T03:05:33;101253.09;;;11.54;76.93
57056;BME280;42945;51.718;5.324;2022-09-02T03:11:23;101302.72;;;11.54;77.88
57056;BME280;42945;51.718;5.324;2022-09-02T03:21:09;101279.94;;;11.66;74.79
57056;BME280;42945;51.718;5.324;2022-09-02T03:26:58;101359.28;;;12.37;73.68
57056;BME280;42945;51.718;5.324;2022-09-02T03:32:46;101389.53;;;12.50;71.81
57056;BME280;42945;51.718;5.324;2022-09-02T03:38:34;101374.03;;;12.43;72.31
57056;BME280;42945;51.718;5.324;2022-09-02T03:44:23;101349.44;;;12.39;72.30
57056;BME280;42945;51.718;5.324;2022-09-02T03:50:11;101272.47;;;11.88;73.03
57056;BME280;42945;51.718;5.324;2022-09-02T03:56:04;101251.91;;;11.76;71.61
57056;BME280;42945;51.718;5.324;2022-09-02T04:01:52;101226.53;;;11.70;72.38
57056;BME280;42945;51.718;5.324;2022-09-02T04:07:40;101341.78;;;12.49;78.11
57056;BME280;42945;51.718;5.324;2022-09-02T04:13:29;101226.94;;;11.78;70.77
57056;BME280;42945;51.718;5.324;2022-09-02T04:23:11;101196.34;;;11.55;71.71
57056;BME280;42945;51.718;5.324;2022-09-02T04:28:58;101350.28;;;12.39;72.19
57056;BME280;42945;51.718;5.324;2022-09-02T04:34:46;101376.25;;;12.50;72.28
57056;BME280;42945;51.718;5.324;2022-09-02T04:40:39;101325.88;;;12.47;73.74
57056;BME280;42945;51.718;5.324;2022-09-02T04:46:28;101301.94;;;12.47;72.13
57056;BME280;42945;51.718;5.324;2022-09-02T04:52:16;101538.44;;;13.92;70.65
57056;BME280;42945;51.718;5.324;2022-09-02T04:58:06;101333.88;;;12.47;72.00
57056;BME280;42945;51.718;5.324;2022-09-02T05:03:55;101323.69;;;12.70;70.91
57056;BME280;42945;51.718;5.324;2022-09-02T05:09:43;101463.72;;;13.34;70.37
57056;BME280;42945;51.718;5.324;2022-09-02T05:15:31;101367.94;;;12.87;72.25
57056;BME280;42945;51.718;5.324;2022-09-02T05:25:13;131065.41;;;191.27;77.67
57056;BME280;42945;51.718;5.324;2022-09-02T05:31:04;101326.06;;;13.05;70.35
57056;BME280;42945;51.718;5.324;2022-09-02T05:36:51;101207.16;;;12.30;69.98
57056;BME280;42945;51.718;5.324;2022-09-02T05:42:40;101457.59;;;13.77;69.84
57056;BME280;42945;51.718;5.324;2022-09-02T05:48:27;101350.72;;;13.23;69.90
57056;BME280;42945;51.718;5.324;2022-09-02T05:54:36;101379.59;;;13.30;69.64
57056;BME280;42945;51.718;5.324;2022-09-02T06:00:23;101249.13;;;12.86;70.76
57056;BME280;42945;51.718;5.324;2022-09-02T06:06:12;101021.13;;;13.66;70.30
57056;BME280;42945;51.718;5.324;2022-09-02T06:12:02;101324.00;;;13.82;70.00
57056;BME280;42945;51.718;5.324;2022-09-02T06:17:49;101230.00;;;13.22;67.81
57056;BME280;42945;51.718;5.324;2022-09-02T06:27:38;101338.38;;;14.35;67.66
57056;BME280;42945;51.718;5.324;2022-09-02T06:33:27;101337.63;;;14.46;65.55
57056;BME280;42945;51.718;5.324;2022-09-02T06:39:18;101184.81;;;14.04;66.46
57056;BME280;42945;51.718;5.324;2022-09-02T06:45:07;101218.72;;;14.29;66.08
57056;BME280;42945;51.718;5.324;2022-09-02T06:50:55;101325.34;;;15.10;65.34
57056;BME280;42945;51.718;5.324;2022-09-02T06:56:45;101455.81;;;15.82;63.01
57056;BME280;42945;51.718;5.324;2022-09-02T07:02:32;101325.72;;;15.68;64.48
57056;BME280;42945;51.718;5.324;2022-09-02T07:08:20;101195.19;;;15.12;64.50
57056;BME280;42945;51.718;5.324;2022-09-02T07:14:08;101258.88;;;16.05;62.34
57056;BME280;42945;51.718;5.324;2022-09-02T07:19:58;101287.94;;;16.23;62.38
57056;BME280;42945;51.718;5.324;2022-09-02T07:29:40;101128.13;;;16.01;62.04
57056;BME280;42945;51.718;5.324;2022-09-02T07:35:49;101236.84;;;16.72;61.05
57056;BME280;42945;51.718;5.324;2022-09-02T07:41:40;101302.38;;;16.80;61.59
57056;BME280;42945;51.718;5.324;2022-09-02T07:47:28;101311.69;;;16.98;59.96
57056;BME280;42945;51.718;5.324;2022-09-02T07:53:18;101283.44;;;16.94;57.99
57056;BME280;42945;51.718;5.324;2022-09-02T07:59:06;101179.91;;;16.82;60.24
57056;BME280;42945;51.718;5.324;2022-09-02T08:04:54;101321.66;;;17.88;58.11
57056;BME280;42945;51.718;5.324;2022-09-02T08:10:41;101266.91;;;18.23;56.71
57056;BME280;42945;51.718;5.324;2022-09-02T08:16:30;101151.56;;;19.35;56.42
57056;BME280;42945;51.718;5.324;2022-09-02T08:22:18;101251.41;;;18.26;56.64
57056;BME280;42945;51.718;5.324;2022-09-02T08:32:08;101276.03;;;19.06;54.38
57056;BME280;42945;51.718;5.324;2022-09-02T08:37:59;101299.66;;;19.33;53.22
57056;BME280;42945;51.718;5.324;2022-09-02T08:43:50;101169.31;;;18.76;53.85
57056;BME280;42945;51.718;5.324;2022-09-02T08:49:49;101581.88;;;19.78;54.45
57056;BME280;42945;51.718;5.324;2022-09-02T08:55:46;101114.06;;;19.23;54.22
57056;BME280;42945;51.718;5.324;2022-09-02T09:01:52;101280.03;;;19.93;52.85
57056;BME280;42945;51.718;5.324;2022-09-02T09:19:54;101273.47;;;21.22;51.28
57056;BME280;42945;51.718;5.324;2022-09-02T09:25:45;100911.47;;;21.54;50.04
57056;BME280;42945;51.718;5.324;2022-09-02T09:36:03;101245.13;;;21.46;50.62
57056;BME280;42945;51.718;5.324;2022-09-02T09:41:56;100951.28;;;20.43;48.99
57056;BME280;42945;51.718;5.324;2022-09-02T09:47:45;101223.31;;;22.38;48.61
57056;BME280;42945;51.718;5.324;2022-09-02T09:54:15;101115.56;;;21.73;48.59
57056;BME280;42945;51.718;5.324;2022-09-02T10:00:31;101142.81;;;22.24;48.41
57056;BME280;42945;51.718;5.324;2022-09-02T10:06:35;101154.50;;;22.77;46.17
57056;BME280;42945;51.718;5.324;2022-09-02T10:12:31;75893.53;;;-145.00;38.94
57056;BME280;42945;51.718;5.324;2022-09-02T10:18:36;101216.53;;;23.90;46.31
57056;BME280;42945;51.718;5.324;2022-09-02T10:24:45;101140.47;;;23.08;46.08
57056;BME280;42945;51.718;5.324;2022-09-02T10:49:06;101288.84;;;25.37;44.95
57056;BME280;42945;51.718;5.324;2022-09-02T11:00:55;101348.94;;;25.34;41.16
57056;BME280;42945;51.718;5.324;2022-09-02T11:06:44;101047.22;;;23.94;40.38
57056;BME280;42945;51.718;5.324;2022-09-02T11:13:01;101156.28;;;24.37;41.70
57056;BME280;42945;51.718;5.324;2022-09-02T11:19:10;101196.25;;;24.43;40.66
57056;BME280;42945;51.718;5.324;2022-09-02T11:25:23;101163.53;;;25.17;40.85
57056;BME280;42945;51.718;5.324;2022-09-02T11:34:57;101163.84;;;24.74;37.92
57056;BME280;42945;51.718;5.324;2022-09-02T11:53:41;101134.44;;;24.94;36.33
57056;BME280;42945;51.718;5.324;2022-09-02T12:05:43;101128.72;;;25.29;36.65
57056;BME280;42945;51.718;5.324;2022-09-02T12:38:40;101104.16;;;26.15;34.53
57056;BME280;42945;51.718;5.324;2022-09-02T12:50:56;101107.97;;;26.05;34.82
57056;BME280;42945;51.718;5.324;2022-09-02T12:56:49;101162.34;;;26.81;33.09
57056;BME280;42945;51.718;5.324;2022-09-02T13:03:15;101049.63;;;26.46;34.03
57056;BME280;42945;51.718;5.324;2022-09-02T13:36:38;101010.63;;;26.24;33.87
57056;BME280;42945;51.718;5.324;2022-09-02T13:42:29;100676.53;;;25.71;34.22
57056;BME280;42945;51.718;5.324;2022-09-02T13:54:07;101025.72;;;26.41;33.51
57056;BME280;42945;51.718;5.324;2022-09-02T13:59:56;100913.03;;;26.29;32.66
57056;BME280;42945;51.718;5.324;2022-09-02T14:05:45;101010.72;;;26.97;31.17
57056;BME280;42945;51.718;5.324;2022-09-02T14:11:41;101027.47;;;27.15;32.46
57056;BME280;42945;51.718;5.324;2022-09-02T14:17:31;75301.81;;;-145.00;29.41
57056;BME280;42945;51.718;5.324;2022-09-02T14:23:22;100893.63;;;26.32;31.79
57056;BME280;42945;51.718;5.324;2022-09-02T14:29:14;100984.06;;;27.50;29.71
57056;BME280;42945;51.718;5.324;2022-09-02T14:45:00;100971.25;;;28.00;30.25
57056;BME280;42945;51.718;5.324;2022-09-02T14:50:57;100961.19;;;27.44;29.58
57056;BME280;42945;51.718;5.324;2022-09-02T14:56:50;101009.44;;;27.79;31.00
57056;BME280;42945;51.718;5.324;2022-09-02T15:02:42;100943.81;;;27.24;29.92
57056;BME280;42945;51.718;5.324;2022-09-02T15:08:32;100947.63;;;26.86;31.56
57056;BME280;42945;51.718;5.324;2022-09-02T15:14:20;101160.94;;;28.10;31.36
57056;BME280;42945;51.718;5.324;2022-09-02T15:20:09;100801.72;;;26.06;31.67
57056;BME280;42945;51.718;5.324;2022-09-02T15:25:58;100927.53;;;26.66;30.89
57056;BME280;42945;51.718;5.324;2022-09-02T15:31:45;100977.41;;;26.95;31.42
57056;BME280;42945;51.718;5.324;2022-09-02T15:41:34;100701.97;;;25.85;31.24
57056;BME280;42945;51.718;5.324;2022-09-02T15:47:22;100820.63;;;26.94;30.46
57056;BME280;42945;51.718;5.324;2022-09-02T15:53:09;100904.13;;;27.93;30.81
57056;BME280;42945;51.718;5.324;2022-09-02T15:59:01;100753.38;;;26.87;30.73
57056;BME280;42945;51.718;5.324;2022-09-02T16:04:49;100912.31;;;27.99;30.16
57056;BME280;42945;51.718;5.324;2022-09-02T16:10:38;100973.56;;;27.75;30.11
57056;BME280;42945;51.718;5.324;2022-09-02T16:16:27;100901.09;;;28.77;29.62
57056;BME280;42945;51.718;5.324;2022-09-02T16:22:15;101010.44;;;29.44;29.42
57056;BME280;42945;51.718;5.324;2022-09-02T16:28:03;100861.06;;;28.36;29.94
57056;BME280;42945;51.718;5.324;2022-09-02T16:33:58;100888.09;;;29.06;28.67
57056;BME280;42945;51.718;5.324;2022-09-02T16:43:41;100883.72;;;29.45;29.88
57056;BME280;42945;51.718;5.324;2022-09-02T16:49:29;101180.00;;;28.94;27.75
57056;BME280;42945;51.718;5.324;2022-09-02T16:55:18;100767.72;;;27.73;28.83
57056;BME280;42945;51.718;5.324;2022-09-02T17:01:31;100604.44;;;27.09;28.88
57056;BME280;42945;51.718;5.324;2022-09-02T17:07:18;100611.59;;;27.17;29.49
57056;BME280;42945;51.718;5.324;2022-09-02T17:13:06;100860.97;;;28.03;29.69
57056;BME280;42945;51.718;5.324;2022-09-02T17:18:55;100874.56;;;27.96;29.01
57056;BME280;42945;51.718;5.324;2022-09-02T17:24:43;100844.84;;;26.30;32.71
57056;BME280;42945;51.718;5.324;2022-09-02T17:30:30;100836.78;;;25.03;36.28
57056;BME280;42945;51.718;5.324;2022-09-02T17:36:19;100880.06;;;24.11;35.13
57056;BME280;42945;51.718;5.324;2022-09-02T17:46:07;100834.69;;;23.65;36.39
57056;BME280;42945;51.718;5.324;2022-09-02T17:51:55;100975.13;;;23.93;37.75
57056;BME280;42945;51.718;5.324;2022-09-02T17:58:02;101160.31;;;24.41;38.77
57056;BME280;42945;51.718;5.324;2022-09-02T18:09:39;100868.88;;;22.68;39.46
57056;BME280;42945;51.718;5.324;2022-09-02T18:15:27;100963.06;;;22.89;39.26
57056;BME280;42945;51.718;5.324;2022-09-02T18:21:31;100891.47;;;21.99;39.47
57056;BME280;42945;51.718;5.324;2022-09-02T18:33:48;100871.97;;;21.53;40.99
57056;BME280;42945;51.718;5.324;2022-09-02T18:46:16;100783.03;;;20.37;43.23
57056;BME280;42945;51.718;5.324;2022-09-02T18:52:08;114979.59;;;104.89;42.11
57056;BME280;42945;51.718;5.324;2022-09-02T18:58:00;100894.28;;;20.48;44.45
57056;BME280;42945;51.718;5.324;2022-09-02T19:03:52;100765.34;;;19.61;47.23
57056;BME280;42945;51.718;5.324;2022-09-02T19:09:40;101005.81;;;20.55;48.83
57056;BME280;42945;51.718;5.324;2022-09-02T19:15:28;100902.06;;;19.95;46.36
57056;BME280;42945;51.718;5.324;2022-09-02T19:27:16;100883.72;;;19.61;46.18
57056;BME280;42945;51.718;5.324;2022-09-02T19:33:08;100811.41;;;18.92;45.34
57056;BME280;42945;51.718;5.324;2022-09-02T19:38:58;100872.88;;;19.43;45.77
57056;BME280;42945;51.718;5.324;2022-09-02T19:44:52;100911.81;;;19.39;45.62
57056;BME280;42945;51.718;5.324;2022-09-02T19:50:43;100978.47;;;19.36;45.43
57056;BME280;42945;51.718;5.324;2022-09-02T19:56:32;100773.66;;;18.54;44.19
57056;BME280;42945;51.718;5.324;2022-09-02T20:02:21;100511.06;;;17.03;47.08
57056;BME280;42945;51.718;5.324;2022-09-02T20:08:09;101036.13;;;19.72;46.44
57056;BME280;42945;51.718;5.324;2022-09-02T20:13:57;101012.47;;;19.56;46.12
57056;BME280;42945;51.718;5.324;2022-09-02T20:19:45;100926.41;;;19.07;45.81
57056;BME280;42945;51.718;5.324;2022-09-02T20:44:17;100990.53;;;19.22;47.19
57056;BME280;42945;51.718;5.324;2022-09-02T20:50:35;100854.94;;;18.46;47.32
57056;BME280;42945;51.718;5.324;2022-09-02T20:56:52;100759.53;;;17.63;48.47
57056;BME280;42945;51.718;5.324;2022-09-02T21:03:03;100798.88;;;17.52;48.85
57056;BME280;42945;51.718;5.324;2022-09-02T21:09:00;100916.44;;;18.09;49.23
57056;BME280;42945;51.718;5.324;2022-09-02T21:15:00;100750.03;;;17.18;49.77
57056;BME280;42945;51.718;5.324;2022-09-02T21:21:00;100916.97;;;18.03;50.24
57056;BME280;42945;51.718;5.324;2022-09-02T21:27:09;100906.28;;;17.82;50.32
57056;BME280;42945;51.718;5.324;2022-09-02T21:32:59;100861.00;;;17.67;49.37
57056;BME280;42945;51.718;5.324;2022-09-02T21:38:54;100905.31;;;17.62;49.67
57056;BME280;42945;51.718;5.324;2022-09-02T22:00:51;100865.69;;;17.44;50.86
57056;BME280;42945;51.718;5.324;2022-09-02T22:07:25;100844.25;;;17.23;49.55
57056;BME280;42945;51.718;5.324;2022-09-02T22:13:10;100761.13;;;16.50;50.32
57056;BME280;42945;51.718;5.324;2022-09-02T22:19:04;100879.31;;;17.10;50.58
57056;BME280;42945;51.718;5.324;2022-09-02T22:24:55;100782.97;;;16.34;51.64
57056;BME280;42945;51.718;5.324;2022-09-02T22:30:51;100886.19;;;16.92;51.92
57056;BME280;42945;51.718;5.324;2022-09-02T22:42:51;100859.59;;;16.79;51.80
57056;BME280;42945;51.718;5.324;2022-09-02T22:49:01;100836.25;;;16.70;51.82
57056;BME280;42945;51.718;5.324;2022-09-02T22:55:12;100705.06;;;15.84;52.53
57056;BME280;42945;51.718;5.324;2022-09-02T23:07:08;100810.13;;;16.19;53.56
57056;BME280;42945;51.718;5.324;2022-09-02T23:13:12;100855.22;;;16.34;53.66
57056;BME280;42945;51.718;5.324;2022-09-02T23:26:05;100747.09;;;15.48;55.90
57056;BME280;42945;51.718;5.324;2022-09-02T23:43:57;100833.41;;;15.84;55.76
57056;BME280;42945;51.718;5.324;2022-09-02T23:50:13;100758.88;;;15.01;56.72
